sensor_id;sensor_type;location;lat;lon;timestamp;P1;durP1;ratioP1;P2;durP2;ratioP2
81508;SDS011;70930;52.412;13.554;2023-09-12T00:01:56;14.15;;;10.90;;
81508;SDS011;70930;52.412;13.554;2023-09-12T00:04:42;14.50;;;10.82;;
81508;SDS011;70930;52.412;13.554;2023-09-12T00:07:27;15.35;;;11.50;;
81508;SDS011;70930;52.412;13.554;2023-09-12T00:10:13;15.55;;;10.98;;
81508;SDS011;70930;52.412;13.554;2023-09-12T00:12:58;14.80;;;10.65;;
81508;SDS011;70930;52.412;13.554;2023-09-12T00:15:47;14.32;;;10.90;;
81508;SDS011;70930;52.412;13.554;2023-09-12T00:18:32;14.32;;;11.30;;
81508;SDS011;70930;52.412;13.554;2023-09-12T00:21:19;16.80;;;10.55;;
81508;SDS011;70930;52.412;13.554;2023-09-12T00:24:05;13.77;;;11.35;;
81508;SDS011;70930;52.412;13.554;2023-09-12T00:26:50;14.52;;;11.32;;
81508;SDS011;70930;52.412;13.554;2023-09-12T00:29:35;13.10;;;10.07;;
81508;SDS011;70930;52.412;13.554;2023-09-12T00:32:21;14.50;;;10.82;;
81508;SDS011;70930;52.412;13.554;2023-09-12T00:35:06;13.50;;;9.95;;
81508;SDS011;70930;52.412;13.554;2023-09-12T00:37:52;15.10;;;11.77;;
81508;SDS011;70930;52.412;13.554;2023-09-12T00:40:37;13.73;;;9.65;;
81508;SDS011;70930;52.412;13.554;2023-09-12T00:43:23;12.95;;;9.85;;
81508;SDS011;70930;52.412;13.554;2023-09-12T00:46:08;14.13;;;9.77;;
81508;SDS011;70930;52.412;13.554;2023-09-12T00:48:53;13.32;;;11.02;;
81508;SDS011;70930;52.412;13.554;2023-09-12T00:51:41;16.30;;;11.73;;
81508;SDS011;70930;52.412;13.554;2023-09-12T00:54:27;13.93;;;9.82;;
81508;SDS011;70930;52.412;13.554;2023-09-12T00:57:13;15.60;;;10.82;;
81508;SDS011;70930;52.412;13.554;2023-09-12T00:59:59;14.10;;;10.30;;
81508;SDS011;70930;52.412;13.554;2023-09-12T01:02:49;11.88;;;9.95;;
81508;SDS011;70930;52.412;13.554;2023-09-12T01:05:36;13.75;;;10.23;;
81508;SDS011;70930;52.412;13.554;2023-09-12T01:08:22;15.00;;;10.90;;
81508;SDS011;70930;52.412;13.554;2023-09-12T01:11:07;14.10;;;10.88;;
81508;SDS011;70930;52.412;13.554;2023-09-12T01:13:53;13.73;;;9.95;;
81508;SDS011;70930;52.412;13.554;2023-09-12T01:16:39;11.85;;;9.80;;
81508;SDS011;70930;52.412;13.554;2023-09-12T01:19:24;15.90;;;10.43;;
81508;SDS011;70930;52.412;13.554;2023-09-12T01:28:14;14.52;;;10.68;;
81508;SDS011;70930;52.412;13.554;2023-09-12T01:31:03;13.85;;;11.55;;
81508;SDS011;70930;52.412;13.554;2023-09-12T01:33:49;16.30;;;10.50;;
81508;SDS011;70930;52.412;13.554;2023-09-12T01:36:34;14.23;;;9.98;;
81508;SDS011;70930;52.412;13.554;2023-09-12T01:39:19;12.50;;;9.93;;
81508;SDS011;70930;52.412;13.554;2023-09-12T01:42:05;15.45;;;11.20;;
81508;SDS011;70930;52.412;13.554;2023-09-12T01:44:56;15.02;;;11.27;;
81508;SDS011;70930;52.412;13.554;2023-09-12T01:47:43;13.88;;;10.93;;
81508;SDS011;70930;52.412;13.554;2023-09-12T01:50:31;12.98;;;11.15;;
81508;SDS011;70930;52.412;13.554;2023-09-12T01:53:18;12.15;;;10.27;;
81508;SDS011;70930;52.412;13.554;2023-09-12T01:56:04;12.52;;;11.20;;
81508;SDS011;70930;52.412;13.554;2023-09-12T01:58:49;12.27;;;10.90;;
81508;SDS011;70930;52.412;13.554;2023-09-12T02:01:35;16.50;;;11.82;;
81508;SDS011;70930;52.412;13.554;2023-09-12T02:04:20;16.33;;;11.55;;
81508;SDS011;70930;52.412;13.554;2023-09-12T02:07:05;12.70;;;10.57;;
81508;SDS011;70930;52.412;13.554;2023-09-12T02:09:51;12.60;;;10.57;;
81508;SDS011;70930;52.412;13.554;2023-09-12T02:12:36;14.77;;;11.65;;
81508;SDS011;70930;52.412;13.554;2023-09-12T02:15:22;13.60;;;10.55;;
81508;SDS011;70930;52.412;13.554;2023-09-12T02:18:07;14.73;;;11.75;;
81508;SDS011;70930;52.412;13.554;2023-09-12T02:20:53;11.35;;;10.15;;
81508;SDS011;70930;52.412;13.554;2023-09-12T02:23:38;15.57;;;10.60;;
81508;SDS011;70930;52.412;13.554;2023-09-12T02:26:23;14.45;;;10.88;;
81508;SDS011;70930;52.412;13.554;2023-09-12T02:29:09;15.93;;;11.88;;
81508;SDS011;70930;52.412;13.554;2023-09-12T02:31:55;14.55;;;11.30;;
81508;SDS011;70930;52.412;13.554;2023-09-12T02:34:41;14.32;;;11.60;;
81508;SDS011;70930;52.412;13.554;2023-09-12T02:37:26;15.20;;;11.75;;
81508;SDS011;70930;52.412;13.554;2023-09-12T02:40:11;13.50;;;11.32;;
81508;SDS011;70930;52.412;13.554;2023-09-12T02:42:59;14.70;;;12.02;;
81508;SDS011;70930;52.412;13.554;2023-09-12T02:45:44;14.18;;;11.50;;
81508;SDS011;70930;52.412;13.554;2023-09-12T02:48:29;12.98;;;10.55;;
81508;SDS011;70930;52.412;13.554;2023-09-12T02:51:15;12.85;;;10.23;;
81508;SDS011;70930;52.412;13.554;2023-09-12T02:54:00;12.98;;;11.13;;
81508;SDS011;70930;52.412;13.554;2023-09-12T02:56:45;15.10;;;12.70;;
81508;SDS011;70930;52.412;13.554;2023-09-12T02:59:31;15.85;;;13.48;;
81508;SDS011;70930;52.412;13.554;2023-09-12T03:02:16;15.52;;;12.32;;
81508;SDS011;70930;52.412;13.554;2023-09-12T03:05:02;15.80;;;12.80;;
81508;SDS011;70930;52.412;13.554;2023-09-12T03:07:47;15.88;;;12.05;;
81508;SDS011;70930;52.412;13.554;2023-09-12T03:10:34;15.93;;;13.20;;
81508;SDS011;70930;52.412;13.554;2023-09-12T03:13:19;16.27;;;12.90;;
81508;SDS011;70930;52.412;13.554;2023-09-12T03:16:04;17.90;;;12.98;;
81508;SDS011;70930;52.412;13.554;2023-09-12T03:18:50;20.92;;;14.48;;
81508;SDS011;70930;52.412;13.554;2023-09-12T03:21:36;15.05;;;12.60;;
81508;SDS011;70930;52.412;13.554;2023-09-12T03:24:21;14.10;;;12.70;;
81508;SDS011;70930;52.412;13.554;2023-09-12T03:27:09;14.65;;;11.73;;
81508;SDS011;70930;52.412;13.554;2023-09-12T03:29:55;18.90;;;14.63;;
81508;SDS011;70930;52.412;13.554;2023-09-12T03:32:40;14.85;;;11.60;;
81508;SDS011;70930;52.412;13.554;2023-09-12T03:35:26;15.43;;;12.25;;
81508;SDS011;70930;52.412;13.554;2023-09-12T03:38:12;14.82;;;12.27;;
81508;SDS011;70930;52.412;13.554;2023-09-12T03:40:57;15.73;;;12.73;;
81508;SDS011;70930;52.412;13.554;2023-09-12T03:43:42;19.70;;;15.48;;
81508;SDS011;70930;52.412;13.554;2023-09-12T03:46:28;15.18;;;12.00;;
81508;SDS011;70930;52.412;13.554;2023-09-12T03:49:13;15.95;;;11.80;;
81508;SDS011;70930;52.412;13.554;2023-09-12T03:51:59;17.02;;;11.65;;
81508;SDS011;70930;52.412;13.554;2023-09-12T03:54:44;16.13;;;13.13;;
81508;SDS011;70930;52.412;13.554;2023-09-12T03:57:29;18.42;;;14.25;;
81508;SDS011;70930;52.412;13.554;2023-09-12T04:00:15;16.40;;;13.68;;
81508;SDS011;70930;52.412;13.554;2023-09-12T04:03:00;16.83;;;12.90;;
81508;SDS011;70930;52.412;13.554;2023-09-12T04:05:46;15.55;;;12.88;;
81508;SDS011;70930;52.412;13.554;2023-09-12T04:08:32;14.65;;;12.23;;
81508;SDS011;70930;52.412;13.554;2023-09-12T04:11:17;14.55;;;12.77;;
81508;SDS011;70930;52.412;13.554;2023-09-12T04:14:03;16.63;;;14.27;;
81508;SDS011;70930;52.412;13.554;2023-09-12T04:16:48;19.30;;;13.20;;
81508;SDS011;70930;52.412;13.554;2023-09-12T04:19:33;16.50;;;14.02;;
81508;SDS011;70930;52.412;13.554;2023-09-12T04:22:19;16.80;;;13.02;;
81508;SDS011;70930;52.412;13.554;2023-09-12T04:25:04;17.20;;;13.75;;
81508;SDS011;70930;52.412;13.554;2023-09-12T04:27:50;17.73;;;14.68;;
81508;SDS011;70930;52.412;13.554;2023-09-12T04:30:35;20.50;;;13.25;;
81508;SDS011;70930;52.412;13.554;2023-09-12T04:33:21;15.13;;;13.52;;
81508;SDS011;70930;52.412;13.554;2023-09-12T04:36:06;17.52;;;13.77;;
81508;SDS011;70930;52.412;13.554;2023-09-12T04:38:51;16.48;;;13.38;;
81508;SDS011;70930;52.412;13.554;2023-09-12T04:41:37;17.45;;;13.95;;
81508;SDS011;70930;52.412;13.554;2023-09-12T04:44:22;18.13;;;13.77;;
81508;SDS011;70930;52.412;13.554;2023-09-12T04:47:08;15.85;;;12.98;;
81508;SDS011;70930;52.412;13.554;2023-09-12T04:49:54;15.73;;;12.80;;
81508;SDS011;70930;52.412;13.554;2023-09-12T04:52:39;18.77;;;14.18;;
81508;SDS011;70930;52.412;13.554;2023-09-12T04:55:25;16.77;;;14.15;;
81508;SDS011;70930;52.412;13.554;2023-09-12T04:58:10;17.73;;;14.80;;
81508;SDS011;70930;52.412;13.554;2023-09-12T05:00:56;13.43;;;11.90;;
81508;SDS011;70930;52.412;13.554;2023-09-12T05:03:41;17.50;;;13.63;;
81508;SDS011;70930;52.412;13.554;2023-09-12T05:06:26;15.88;;;13.18;;
81508;SDS011;70930;52.412;13.554;2023-09-12T05:09:12;16.42;;;12.48;;
81508;SDS011;70930;52.412;13.554;2023-09-12T05:11:57;20.40;;;15.95;;
81508;SDS011;70930;52.412;13.554;2023-09-12T05:14:43;15.38;;;13.32;;
81508;SDS011;70930;52.412;13.554;2023-09-12T05:17:28;19.33;;;15.80;;
81508;SDS011;70930;52.412;13.554;2023-09-12T05:20:13;18.00;;;14.07;;
81508;SDS011;70930;52.412;13.554;2023-09-12T05:22:59;15.10;;;13.02;;
81508;SDS011;70930;52.412;13.554;2023-09-12T05:25:44;16.40;;;13.65;;
81508;SDS011;70930;52.412;13.554;2023-09-12T05:28:29;17.45;;;14.05;;
81508;SDS011;70930;52.412;13.554;2023-09-12T05:31:15;21.17;;;15.57;;
81508;SDS011;70930;52.412;13.554;2023-09-12T05:34:00;19.15;;;13.70;;
81508;SDS011;70930;52.412;13.554;2023-09-12T05:36:46;23.13;;;14.23;;
81508;SDS011;70930;52.412;13.554;2023-09-12T05:39:31;18.02;;;13.32;;
81508;SDS011;70930;52.412;13.554;2023-09-12T05:42:16;18.02;;;14.50;;
81508;SDS011;70930;52.412;13.554;2023-09-12T05:45:05;17.20;;;13.68;;
81508;SDS011;70930;52.412;13.554;2023-09-12T05:47:52;16.40;;;12.23;;
81508;SDS011;70930;52.412;13.554;2023-09-12T05:50:37;17.58;;;15.20;;
81508;SDS011;70930;52.412;13.554;2023-09-12T05:53:22;16.90;;;13.15;;
81508;SDS011;70930;52.412;13.554;2023-09-12T05:56:08;20.75;;;13.57;;
81508;SDS011;70930;52.412;13.554;2023-09-12T05:58:53;21.98;;;13.25;;
81508;SDS011;70930;52.412;13.554;2023-09-12T06:01:38;28.10;;;12.80;;
81508;SDS011;70930;52.412;13.554;2023-09-12T06:20:58;15.60;;;12.30;;
81508;SDS011;70930;52.412;13.554;2023-09-12T06:31:59;13.57;;;12.20;;
81508;SDS011;70930;52.412;13.554;2023-09-12T06:34:47;16.65;;;11.50;;
81508;SDS011;70930;52.412;13.554;2023-09-12T06:37:33;14.13;;;11.95;;
81508;SDS011;70930;52.412;13.554;2023-09-12T06:40:18;14.75;;;11.82;;
81508;SDS011;70930;52.412;13.554;2023-09-12T06:43:03;18.38;;;12.85;;
81508;SDS011;70930;52.412;13.554;2023-09-12T06:45:49;15.15;;;11.32;;
81508;SDS011;70930;52.412;13.554;2023-09-12T06:48:35;14.95;;;11.48;;
81508;SDS011;70930;52.412;13.554;2023-09-12T06:51:23;14.75;;;11.68;;
81508;SDS011;70930;52.412;13.554;2023-09-12T06:54:10;14.27;;;11.38;;
81508;SDS011;70930;52.412;13.554;2023-09-12T06:56:56;14.13;;;10.35;;
81508;SDS011;70930;52.412;13.554;2023-09-12T06:59:41;15.32;;;11.13;;
81508;SDS011;70930;52.412;13.554;2023-09-12T07:02:26;11.05;;;9.77;;
81508;SDS011;70930;52.412;13.554;2023-09-12T07:05:12;16.77;;;11.63;;
81508;SDS011;70930;52.412;13.554;2023-09-12T07:07:57;12.15;;;10.52;;
81508;SDS011;70930;52.412;13.554;2023-09-12T07:10:43;14.57;;;9.93;;
81508;SDS011;70930;52.412;13.554;2023-09-12T07:13:30;18.98;;;9.55;;
81508;SDS011;70930;52.412;13.554;2023-09-12T07:16:16;13.82;;;9.10;;
81508;SDS011;70930;52.412;13.554;2023-09-12T07:19:02;14.45;;;9.25;;
81508;SDS011;70930;52.412;13.554;2023-09-12T07:21:48;18.30;;;8.85;;
81508;SDS011;70930;52.412;13.554;2023-09-12T07:24:33;11.00;;;8.40;;
81508;SDS011;70930;52.412;13.554;2023-09-12T07:27:19;11.65;;;7.70;;
81508;SDS011;70930;52.412;13.554;2023-09-12T07:30:06;11.88;;;8.35;;
81508;SDS011;70930;52.412;13.554;2023-09-12T07:32:52;15.13;;;8.63;;
81508;SDS011;70930;52.412;13.554;2023-09-12T07:35:37;11.40;;;8.20;;
81508;SDS011;70930;52.412;13.554;2023-09-12T07:38:23;9.20;;;6.85;;
81508;SDS011;70930;52.412;13.554;2023-09-12T07:41:08;10.40;;;7.80;;
81508;SDS011;70930;52.412;13.554;2023-09-12T07:43:54;12.20;;;7.18;;
81508;SDS011;70930;52.412;13.554;2023-09-12T07:46:39;14.38;;;6.90;;
81508;SDS011;70930;52.412;13.554;2023-09-12T07:49:24;10.95;;;6.93;;
81508;SDS011;70930;52.412;13.554;2023-09-12T07:55:00;12.00;;;7.35;;
81508;SDS011;70930;52.412;13.554;2023-09-12T07:57:45;10.95;;;6.70;;
81508;SDS011;70930;52.412;13.554;2023-09-12T08:00:31;9.77;;;6.85;;
81508;SDS011;70930;52.412;13.554;2023-09-12T08:03:17;10.60;;;6.55;;
81508;SDS011;70930;52.412;13.554;2023-09-12T08:08:48;9.50;;;6.50;;
81508;SDS011;70930;52.412;13.554;2023-09-12T08:11:33;11.05;;;6.53;;
81508;SDS011;70930;52.412;13.554;2023-09-12T08:14:19;15.32;;;7.45;;
81508;SDS011;70930;52.412;13.554;2023-09-12T08:17:06;11.45;;;6.30;;
81508;SDS011;70930;52.412;13.554;2023-09-12T08:19:51;9.55;;;6.05;;
81508;SDS011;70930;52.412;13.554;2023-09-12T08:22:37;14.10;;;7.32;;
81508;SDS011;70930;52.412;13.554;2023-09-12T08:25:23;15.80;;;7.30;;
81508;SDS011;70930;52.412;13.554;2023-09-12T08:30:55;14.05;;;6.80;;
81508;SDS011;70930;52.412;13.554;2023-09-12T08:33:40;10.05;;;6.10;;
81508;SDS011;70930;52.412;13.554;2023-09-12T08:36:25;12.43;;;6.47;;
81508;SDS011;70930;52.412;13.554;2023-09-12T08:39:12;8.90;;;5.90;;
81508;SDS011;70930;52.412;13.554;2023-09-12T08:41:59;14.57;;;7.25;;
81508;SDS011;70930;52.412;13.554;2023-09-12T08:44:45;9.88;;;6.80;;
81508;SDS011;70930;52.412;13.554;2023-09-12T08:47:30;10.00;;;6.10;;
81508;SDS011;70930;52.412;13.554;2023-09-12T08:50:17;9.50;;;6.05;;
81508;SDS011;70930;52.412;13.554;2023-09-12T08:53:03;14.73;;;6.07;;
81508;SDS011;70930;52.412;13.554;2023-09-12T08:55:48;9.70;;;6.03;;
81508;SDS011;70930;52.412;13.554;2023-09-12T08:58:34;17.75;;;5.80;;
81508;SDS011;70930;52.412;13.554;2023-09-12T09:01:20;13.38;;;5.70;;
81508;SDS011;70930;52.412;13.554;2023-09-12T09:04:06;10.20;;;5.90;;
81508;SDS011;70930;52.412;13.554;2023-09-12T09:06:52;16.92;;;6.53;;
81508;SDS011;70930;52.412;13.554;2023-09-12T09:09:39;13.52;;;6.55;;
81508;SDS011;70930;52.412;13.554;2023-09-12T09:12:26;14.60;;;5.93;;
81508;SDS011;70930;52.412;13.554;2023-09-12T09:15:22;11.00;;;6.00;;
81508;SDS011;70930;52.412;13.554;2023-09-12T09:18:09;13.00;;;6.47;;
81508;SDS011;70930;52.412;13.554;2023-09-12T09:20:56;13.73;;;5.95;;
81508;SDS011;70930;52.412;13.554;2023-09-12T09:23:45;10.15;;;5.60;;
81508;SDS011;70930;52.412;13.554;2023-09-12T09:29:30;15.73;;;6.70;;
81508;SDS011;70930;52.412;13.554;2023-09-12T09:32:18;13.10;;;6.00;;
81508;SDS011;70930;52.412;13.554;2023-09-12T09:35:06;11.07;;;6.35;;
81508;SDS011;70930;52.412;13.554;2023-09-12T09:37:54;13.43;;;6.13;;
81508;SDS011;70930;52.412;13.554;2023-09-12T09:40:39;18.40;;;5.78;;
81508;SDS011;70930;52.412;13.554;2023-09-12T09:43:25;10.02;;;6.00;;
81508;SDS011;70930;52.412;13.554;2023-09-12T09:46:14;14.77;;;5.70;;
81508;SDS011;70930;52.412;13.554;2023-09-12T09:49:00;14.63;;;6.30;;
81508;SDS011;70930;52.412;13.554;2023-09-12T09:51:46;15.20;;;6.15;;
81508;SDS011;70930;52.412;13.554;2023-09-12T09:54:31;13.10;;;6.40;;
81508;SDS011;70930;52.412;13.554;2023-09-12T09:57:17;12.20;;;5.82;;
81508;SDS011;70930;52.412;13.554;2023-09-12T10:00:02;11.93;;;5.75;;
81508;SDS011;70930;52.412;13.554;2023-09-12T10:02:53;11.60;;;5.68;;
81508;SDS011;70930;52.412;13.554;2023-09-12T10:05:40;17.45;;;5.97;;
81508;SDS011;70930;52.412;13.554;2023-09-12T10:08:27;14.70;;;6.38;;
81508;SDS011;70930;52.412;13.554;2023-09-12T10:11:14;18.80;;;6.03;;
81508;SDS011;70930;52.412;13.554;2023-09-12T10:14:04;12.60;;;5.03;;
81508;SDS011;70930;52.412;13.554;2023-09-12T10:16:50;11.07;;;4.95;;
81508;SDS011;70930;52.412;13.554;2023-09-12T10:19:38;16.10;;;6.10;;
81508;SDS011;70930;52.412;13.554;2023-09-12T10:22:31;13.02;;;5.93;;
81508;SDS011;70930;52.412;13.554;2023-09-12T10:25:19;15.40;;;5.88;;
81508;SDS011;70930;52.412;13.554;2023-09-12T10:28:05;11.75;;;5.63;;
81508;SDS011;70930;52.412;13.554;2023-09-12T10:30:52;16.77;;;6.25;;
81508;SDS011;70930;52.412;13.554;2023-09-12T10:33:39;16.08;;;6.25;;
81508;SDS011;70930;52.412;13.554;2023-09-12T10:36:24;14.48;;;6.28;;
81508;SDS011;70930;52.412;13.554;2023-09-12T10:39:12;13.77;;;5.95;;
81508;SDS011;70930;52.412;13.554;2023-09-12T10:41:59;11.02;;;6.35;;
81508;SDS011;70930;52.412;13.554;2023-09-12T10:44:48;13.10;;;5.30;;
81508;SDS011;70930;52.412;13.554;2023-09-12T10:47:36;17.30;;;6.40;;
81508;SDS011;70930;52.412;13.554;2023-09-12T10:50:23;15.57;;;6.22;;
81508;SDS011;70930;52.412;13.554;2023-09-12T10:53:12;18.58;;;7.13;;
81508;SDS011;70930;52.412;13.554;2023-09-12T10:56:00;15.25;;;6.70;;
81508;SDS011;70930;52.412;13.554;2023-09-12T11:01:51;13.48;;;5.95;;
81508;SDS011;70930;52.412;13.554;2023-09-12T11:04:36;15.45;;;7.60;;
81508;SDS011;70930;52.412;13.554;2023-09-12T11:07:32;14.88;;;6.47;;
81508;SDS011;70930;52.412;13.554;2023-09-12T11:10:21;13.38;;;6.50;;
81508;SDS011;70930;52.412;13.554;2023-09-12T11:13:07;20.52;;;6.40;;
81508;SDS011;70930;52.412;13.554;2023-09-12T11:16:09;12.50;;;7.20;;
81508;SDS011;70930;52.412;13.554;2023-09-12T11:22:01;13.68;;;6.47;;
81508;SDS011;70930;52.412;13.554;2023-09-12T11:25:26;11.50;;;6.10;;
81508;SDS011;70930;52.412;13.554;2023-09-12T11:28:11;16.90;;;6.47;;
81508;SDS011;70930;52.412;13.554;2023-09-12T11:30:57;9.73;;;6.80;;
81508;SDS011;70930;52.412;13.554;2023-09-12T11:33:43;16.15;;;6.65;;
81508;SDS011;70930;52.412;13.554;2023-09-12T11:36:28;16.98;;;6.78;;
81508;SDS011;70930;52.412;13.554;2023-09-12T11:39:23;16.08;;;6.80;;
81508;SDS011;70930;52.412;13.554;2023-09-12T11:42:10;15.95;;;7.63;;
81508;SDS011;70930;52.412;13.554;2023-09-12T11:44:58;13.27;;;5.72;;
81508;SDS011;70930;52.412;13.554;2023-09-12T11:47:44;12.75;;;5.78;;
81508;SDS011;70930;52.412;13.554;2023-09-12T11:53:19;14.40;;;5.75;;
81508;SDS011;70930;52.412;13.554;2023-09-12T11:56:15;11.07;;;5.82;;
81508;SDS011;70930;52.412;13.554;2023-09-12T11:59:01;12.40;;;6.30;;
81508;SDS011;70930;52.412;13.554;2023-09-12T12:01:46;11.48;;;5.85;;
81508;SDS011;70930;52.412;13.554;2023-09-12T12:04:32;14.82;;;6.53;;
81508;SDS011;70930;52.412;13.554;2023-09-12T12:07:17;17.60;;;8.20;;
81508;SDS011;70930;52.412;13.554;2023-09-12T12:10:03;12.25;;;6.57;;
81508;SDS011;70930;52.412;13.554;2023-09-12T12:12:52;9.90;;;6.30;;
81508;SDS011;70930;52.412;13.554;2023-09-12T12:15:38;13.63;;;6.15;;
81508;SDS011;70930;52.412;13.554;2023-09-12T12:18:23;16.15;;;6.60;;
81508;SDS011;70930;52.412;13.554;2023-09-12T12:21:08;12.10;;;5.80;;
81508;SDS011;70930;52.412;13.554;2023-09-12T12:23:58;8.75;;;5.95;;
81508;SDS011;70930;52.412;13.554;2023-09-12T12:26:44;12.40;;;5.68;;
81508;SDS011;70930;52.412;13.554;2023-09-12T12:29:30;10.88;;;5.82;;
81508;SDS011;70930;52.412;13.554;2023-09-12T12:32:16;13.57;;;6.80;;
81508;SDS011;70930;52.412;13.554;2023-09-12T12:35:01;11.05;;;6.25;;
81508;SDS011;70930;52.412;13.554;2023-09-12T12:37:48;11.38;;;5.53;;
81508;SDS011;70930;52.412;13.554;2023-09-12T12:40:38;13.63;;;5.45;;
81508;SDS011;70930;52.412;13.554;2023-09-12T12:43:27;11.73;;;5.25;;
81508;SDS011;70930;52.412;13.554;2023-09-12T12:46:13;14.90;;;6.20;;
81508;SDS011;70930;52.412;13.554;2023-09-12T12:48:58;14.98;;;6.47;;
81508;SDS011;70930;52.412;13.554;2023-09-12T12:51:44;11.38;;;6.00;;
81508;SDS011;70930;52.412;13.554;2023-09-12T12:57:19;17.02;;;6.85;;
81508;SDS011;70930;52.412;13.554;2023-09-12T13:00:14;13.90;;;6.55;;
81508;SDS011;70930;52.412;13.554;2023-09-12T13:03:01;15.93;;;6.68;;
81508;SDS011;70930;52.412;13.554;2023-09-12T13:05:46;14.63;;;6.25;;
81508;SDS011;70930;52.412;13.554;2023-09-12T13:08:32;18.05;;;6.72;;
81508;SDS011;70930;52.412;13.554;2023-09-12T13:11:19;14.93;;;6.90;;
81508;SDS011;70930;52.412;13.554;2023-09-12T13:14:05;10.13;;;6.25;;
81508;SDS011;70930;52.412;13.554;2023-09-12T13:16:58;13.15;;;6.68;;
81508;SDS011;70930;52.412;13.554;2023-09-12T13:19:44;14.02;;;7.18;;
81508;SDS011;70930;52.412;13.554;2023-09-12T13:22:29;15.80;;;6.78;;
81508;SDS011;70930;52.412;13.554;2023-09-12T13:25:15;14.30;;;6.93;;
81508;SDS011;70930;52.412;13.554;2023-09-12T13:28:00;12.90;;;6.85;;
81508;SDS011;70930;52.412;13.554;2023-09-12T13:30:46;13.77;;;6.65;;
81508;SDS011;70930;52.412;13.554;2023-09-12T13:33:31;11.60;;;6.18;;
81508;SDS011;70930;52.412;13.554;2023-09-12T13:36:17;11.52;;;7.40;;
81508;SDS011;70930;52.412;13.554;2023-09-12T13:39:02;13.00;;;6.05;;
81508;SDS011;70930;52.412;13.554;2023-09-12T13:41:49;12.38;;;5.97;;
81508;SDS011;70930;52.412;13.554;2023-09-12T13:44:34;16.00;;;7.28;;
81508;SDS011;70930;52.412;13.554;2023-09-12T13:47:19;23.95;;;6.72;;
81508;SDS011;70930;52.412;13.554;2023-09-12T13:50:08;16.55;;;6.75;;
81508;SDS011;70930;52.412;13.554;2023-09-12T13:52:54;11.57;;;6.75;;
81508;SDS011;70930;52.412;13.554;2023-09-12T13:55:41;10.85;;;6.15;;
81508;SDS011;70930;52.412;13.554;2023-09-12T13:58:26;11.43;;;6.93;;
81508;SDS011;70930;52.412;13.554;2023-09-12T14:01:11;14.30;;;6.72;;
81508;SDS011;70930;52.412;13.554;2023-09-12T14:03:57;13.90;;;6.50;;
81508;SDS011;70930;52.412;13.554;2023-09-12T14:06:42;9.77;;;6.40;;
81508;SDS011;70930;52.412;13.554;2023-09-12T14:09:28;11.02;;;6.25;;
81508;SDS011;70930;52.412;13.554;2023-09-12T14:12:13;14.60;;;6.20;;
81508;SDS011;70930;52.412;13.554;2023-09-12T14:14:59;9.80;;;6.95;;
81508;SDS011;70930;52.412;13.554;2023-09-12T14:17:45;15.00;;;6.47;;
81508;SDS011;70930;52.412;13.554;2023-09-12T14:20:30;11.98;;;6.05;;
81508;SDS011;70930;52.412;13.554;2023-09-12T14:23:15;12.85;;;6.30;;
81508;SDS011;70930;52.412;13.554;2023-09-12T14:26:01;12.10;;;6.32;;
81508;SDS011;70930;52.412;13.554;2023-09-12T14:28:46;14.75;;;6.55;;
81508;SDS011;70930;52.412;13.554;2023-09-12T14:31:32;16.05;;;6.47;;
81508;SDS011;70930;52.412;13.554;2023-09-12T14:34:17;13.63;;;6.13;;
81508;SDS011;70930;52.412;13.554;2023-09-12T14:37:03;13.20;;;5.70;;
81508;SDS011;70930;52.412;13.554;2023-09-12T14:39:48;11.70;;;6.40;;
81508;SDS011;70930;52.412;13.554;2023-09-12T14:42:34;10.85;;;6.30;;
81508;SDS011;70930;52.412;13.554;2023-09-12T14:45:19;11.55;;;5.63;;
81508;SDS011;70930;52.412;13.554;2023-09-12T14:48:04;11.90;;;6.38;;
81508;SDS011;70930;52.412;13.554;2023-09-12T14:50:50;17.02;;;6.30;;
81508;SDS011;70930;52.412;13.554;2023-09-12T14:53:36;13.75;;;7.25;;
81508;SDS011;70930;52.412;13.554;2023-09-12T14:56:21;9.25;;;5.93;;
81508;SDS011;70930;52.412;13.554;2023-09-12T14:59:08;15.70;;;6.70;;
81508;SDS011;70930;52.412;13.554;2023-09-12T15:01:53;15.63;;;7.30;;
81508;SDS011;70930;52.412;13.554;2023-09-12T15:04:39;15.13;;;6.38;;
81508;SDS011;70930;52.412;13.554;2023-09-12T15:07:24;17.73;;;6.78;;
81508;SDS011;70930;52.412;13.554;2023-09-12T15:10:10;18.38;;;6.22;;
81508;SDS011;70930;52.412;13.554;2023-09-12T15:12:55;13.48;;;6.18;;
81508;SDS011;70930;52.412;13.554;2023-09-12T15:15:41;13.40;;;6.15;;
81508;SDS011;70930;52.412;13.554;2023-09-12T15:18:26;10.45;;;5.85;;
81508;SDS011;70930;52.412;13.554;2023-09-12T15:21:11;17.02;;;6.25;;
81508;SDS011;70930;52.412;13.554;2023-09-12T15:23:57;12.70;;;5.80;;
81508;SDS011;70930;52.412;13.554;2023-09-12T15:26:42;7.68;;;4.00;;
81508;SDS011;70930;52.412;13.554;2023-09-12T15:29:27;8.25;;;3.97;;
81508;SDS011;70930;52.412;13.554;2023-09-12T15:32:13;9.27;;;4.15;;
81508;SDS011;70930;52.412;13.554;2023-09-12T15:34:58;6.15;;;3.72;;
81508;SDS011;70930;52.412;13.554;2023-09-12T15:37:44;10.48;;;3.85;;
81508;SDS011;70930;52.412;13.554;2023-09-12T15:40:29;7.70;;;3.45;;
81508;SDS011;70930;52.412;13.554;2023-09-12T15:43:15;8.60;;;4.03;;
81508;SDS011;70930;52.412;13.554;2023-09-12T15:46:00;6.40;;;4.03;;
81508;SDS011;70930;52.412;13.554;2023-09-12T15:48:45;5.70;;;3.30;;
81508;SDS011;70930;52.412;13.554;2023-09-12T15:51:31;5.20;;;3.10;;
81508;SDS011;70930;52.412;13.554;2023-09-12T15:54:17;7.10;;;3.30;;
81508;SDS011;70930;52.412;13.554;2023-09-12T15:57:02;3.30;;;2.90;;
81508;SDS011;70930;52.412;13.554;2023-09-12T15:59:48;5.53;;;2.83;;
81508;SDS011;70930;52.412;13.554;2023-09-12T16:02:33;6.63;;;3.30;;
81508;SDS011;70930;52.412;13.554;2023-09-12T16:05:18;7.97;;;2.97;;
81508;SDS011;70930;52.412;13.554;2023-09-12T16:08:04;4.88;;;2.92;;
81508;SDS011;70930;52.412;13.554;2023-09-12T16:10:50;3.38;;;2.40;;
81508;SDS011;70930;52.412;13.554;2023-09-12T16:13:35;6.22;;;2.75;;
81508;SDS011;70930;52.412;13.554;2023-09-12T16:16:21;4.07;;;3.05;;
81508;SDS011;70930;52.412;13.554;2023-09-12T16:19:06;4.10;;;3.10;;
81508;SDS011;70930;52.412;13.554;2023-09-12T16:21:54;4.65;;;2.80;;
81508;SDS011;70930;52.412;13.554;2023-09-12T16:24:39;4.00;;;2.72;;
81508;SDS011;70930;52.412;13.554;2023-09-12T16:27:24;8.73;;;2.78;;
81508;SDS011;70930;52.412;13.554;2023-09-12T16:30:10;5.35;;;2.42;;
81508;SDS011;70930;52.412;13.554;2023-09-12T16:32:56;4.95;;;2.85;;
81508;SDS011;70930;52.412;13.554;2023-09-12T16:35:41;7.00;;;3.10;;
81508;SDS011;70930;52.412;13.554;2023-09-12T16:38:26;4.53;;;3.03;;
81508;SDS011;70930;52.412;13.554;2023-09-12T16:41:12;10.45;;;3.33;;
81508;SDS011;70930;52.412;13.554;2023-09-12T16:43:57;4.82;;;3.42;;
81508;SDS011;70930;52.412;13.554;2023-09-12T16:46:43;5.70;;;3.50;;
81508;SDS011;70930;52.412;13.554;2023-09-12T16:49:28;4.70;;;2.95;;
81508;SDS011;70930;52.412;13.554;2023-09-12T16:52:14;5.65;;;3.90;;
81508;SDS011;70930;52.412;13.554;2023-09-12T16:54:59;6.85;;;3.50;;
81508;SDS011;70930;52.412;13.554;2023-09-12T16:57:44;3.97;;;2.92;;
81508;SDS011;70930;52.412;13.554;2023-09-12T17:00:30;3.47;;;2.53;;
81508;SDS011;70930;52.412;13.554;2023-09-12T17:03:15;5.18;;;2.83;;